Time;durP1;ratioP1;P1;durP2;ratioP2;P2;SDS_P1;SDS_P2;PMS_P1;PMS_P2;Temp;Humidity;BMP_temperature;BMP_pressure;BME280_temperature;BME280_humidity;BME280_pressure;Samples;Min_cycle;Max_cycle;Signal;HPM_P1;HPM_P2
2023/07/20 00:00:20;;;;;;;3.90;1.08;;;16.60;99.90;;;;;;4099556;29;20125;-78
2023/07/20 00:02:20;;;;;;;2.63;1.13;;;16.60;99.90;;;;;;4132665;28;20053;-78
2023/07/20 00:04:21;;;;;;;1.50;0.90;;;16.60;99.90;;;;;;4115410;28;20047;-78
2023/07/20 00:06:24;;;;;;;4.28;1.30;;;16.60;99.90;;;;;;4132256;28;20518;-78
2023/07/20 00:08:25;;;;;;;2.33;1.33;;;16.60;99.90;;;;;;4145533;28;20085;-78
2023/07/20 00:10:26;;;;;;;2.50;0.90;;;16.60;99.90;;;;;;4148967;28;20045;-78
2023/07/20 00:12:26;;;;;;;1.13;1.02;;;16.60;99.90;;;;;;4149852;28;20116;-78
2023/07/20 00:14:27;;;;;;;1.73;1.00;;;16.60;99.90;;;;;;4148850;28;20046;-78
2023/07/20 00:16:28;;;;;;;3.10;1.38;;;16.60;99.90;;;;;;4148929;28;20124;-78
2023/07/20 00:18:28;;;;;;;1.33;1.20;;;16.60;99.90;;;;;;4147775;28;20113;-78
2023/07/20 00:20:29;;;;;;;2.25;1.20;;;16.60;99.90;;;;;;4131143;28;20540;-78
2023/07/20 00:22:30;;;;;;;2.13;0.95;;;16.60;99.90;;;;;;4133110;28;20042;-78
2023/07/20 00:24:32;;;;;;;3.58;1.17;;;16.50;99.90;;;;;;4133397;28;20038;-78
2023/07/20 00:26:33;;;;;;;1.83;1.17;;;16.50;99.90;;;;;;4146051;28;20070;-78
2023/07/20 00:28:33;;;;;;;3.20;1.40;;;16.50;99.90;;;;;;4148096;28;20386;-78
2023/07/20 00:30:34;;;;;;;2.30;1.25;;;16.50;99.90;;;;;;4132681;28;20053;-79
2023/07/20 00:32:35;;;;;;;3.67;1.30;;;16.40;99.90;;;;;;4132997;28;20050;-78
2023/07/20 00:34:35;;;;;;;4.07;1.20;;;16.40;99.90;;;;;;4132145;28;20043;-78
2023/07/20 00:36:36;;;;;;;3.67;1.60;;;16.40;99.90;;;;;;4133346;28;20471;-78
2023/07/20 00:38:37;;;;;;;6.07;1.50;;;16.40;99.90;;;;;;4141969;28;20085;-79
2023/07/20 00:40:38;;;;;;;2.00;1.17;;;16.30;99.90;;;;;;4132464;28;20586;-78
2023/07/20 00:42:39;;;;;;;2.05;1.13;;;16.30;99.90;;;;;;4132225;28;20057;-78
2023/07/20 00:44:40;;;;;;;2.03;1.45;;;16.30;99.90;;;;;;4132174;28;20431;-78
2023/07/20 00:46:41;;;;;;;2.53;1.33;;;16.30;99.90;;;;;;4132283;28;20078;-78
2023/07/20 00:48:42;;;;;;;2.22;1.10;;;16.30;99.90;;;;;;4132183;28;20495;-78
2023/07/20 00:50:44;;;;;;;1.65;1.27;;;16.30;99.90;;;;;;4132237;28;20068;-78
2023/07/20 00:52:45;;;;;;;3.08;1.65;;;16.20;99.90;;;;;;4132100;28;20054;-78
2023/07/20 00:54:47;;;;;;;3.25;1.10;;;16.20;99.90;;;;;;4132021;28;20809;-78
2023/07/20 00:56:48;;;;;;;3.70;1.40;;;16.10;99.90;;;;;;4115366;28;20053;-78
2023/07/20 00:58:50;;;;;;;5.63;1.65;;;;;;;;;;4132552;28;20054;-79
2023/07/20 01:00:51;;;;;;;4.47;1.50;;;16.10;99.90;;;;;;4132068;28;20046;-78
2023/07/20 01:02:52;;;;;;;2.72;1.40;;;16.00;99.90;;;;;;4114711;28;20063;-78
2023/07/20 01:04:52;;;;;;;1.65;1.30;;;15.90;99.90;;;;;;4131819;28;20117;-78
2023/07/20 01:07:05;;;;;;;1.92;1.60;;;15.80;99.90;;;;;;4131438;28;20100;-78
2023/07/20 01:09:13;;;;;;;1.85;1.40;;;15.80;99.90;;;;;;4131138;28;20046;-78
2023/07/20 01:11:31;;;;;;;3.97;2.38;;;15.80;99.90;;;;;;4131551;28;20058;-78
2023/07/20 01:13:33;;;;;;;2.08;1.35;;;15.70;99.90;;;;;;4131965;28;20054;-78
2023/07/20 01:15:34;;;;;;;2.65;1.20;;;15.70;99.90;;;;;;4114230;28;20113;-78
2023/07/20 01:17:35;;;;;;;2.22;1.38;;;15.60;99.90;;;;;;4131412;28;20050;-78
2023/07/20 01:19:36;;;;;;;1.80;1.27;;;15.60;99.90;;;;;;4131351;28;20513;-78
2023/07/20 01:21:53;;;;;;;2.05;1.38;;;15.60;99.90;;;;;;4132117;28;20085;-79
2023/07/20 01:24:12;;;;;;;2.33;1.40;;;15.50;99.90;;;;;;4131673;28;20509;-78
2023/07/20 01:26:35;;;;;;;1.83;1.23;;;15.50;99.90;;;;;;4131729;28;20101;-78
2023/07/20 01:28:48;;;;;;;2.60;1.17;;;15.50;99.90;;;;;;4132011;28;20058;-78
2023/07/20 01:30:58;;;;;;;3.47;1.33;;;15.40;99.90;;;;;;4114614;28;20086;-78
2023/07/20 01:32:58;;;;;;;;;;;15.40;99.90;;;;;;4133516;28;20462;-78
2023/07/20 01:35:01;;;;;;;4.00;1.48;;;15.30;99.90;;;;;;4131871;28;19922;-78
2023/07/20 01:37:03;;;;;;;2.08;1.60;;;15.30;99.90;;;;;;4132001;28;20045;-78
2023/07/20 01:39:05;;;;;;;2.70;1.20;;;15.20;99.90;;;;;;4131100;28;20050;-78
2023/07/20 01:41:06;;;;;;;1.73;1.40;;;15.20;99.90;;;;;;4132486;28;20486;-78
2023/07/20 01:43:07;;;;;;;2.85;1.40;;;15.20;99.90;;;;;;4121457;28;20136;-78
2023/07/20 01:45:08;;;;;;;2.10;1.30;;;15.10;99.90;;;;;;4124862;28;20103;-79
2023/07/20 01:47:09;;;;;;;2.35;1.50;;;15.10;99.90;;;;;;4138036;28;20486;-78
2023/07/20 01:49:09;;;;;;;2.33;1.50;;;15.10;99.90;;;;;;4131870;28;20065;-78
2023/07/20 01:51:12;;;;;;;1.58;1.25;;;15.00;99.90;;;;;;4115135;28;20046;-78
2023/07/20 01:53:12;;;;;;;3.67;2.30;;;15.00;99.90;;;;;;4132564;28;20049;-78
2023/07/20 01:55:13;;;;;;;1.40;1.30;;;15.00;99.90;;;;;;4131421;28;20054;-78
2023/07/20 01:57:14;;;;;;;3.47;1.35;;;14.90;99.90;;;;;;4131390;28;20505;-78
2023/07/20 01:59:14;;;;;;;3.03;1.70;;;14.90;99.90;;;;;;4131307;28;20089;-78
2023/07/20 02:01:15;;;;;;;3.55;1.52;;;14.80;99.90;;;;;;4132044;28;20042;-78
2023/07/20 02:03:16;;;;;;;2.20;1.60;;;14.80;99.90;;;;;;4114715;28;20043;-78
2023/07/20 02:05:17;;;;;;;2.80;1.30;;;14.80;99.90;;;;;;4113491;28;20131;-78
2023/07/20 02:07:17;;;;;;;2.38;1.40;;;14.80;99.90;;;;;;4131113;28;20129;-79
2023/07/20 02:09:19;;;;;;;1.48;1.30;;;14.70;99.90;;;;;;4113659;28;20129;-78
2023/07/20 02:11:20;;;;;;;1.90;1.30;;;14.70;99.90;;;;;;4114507;28;20043;-78
2023/07/20 02:13:21;;;;;;;3.45;1.55;;;14.70;99.90;;;;;;4131327;28;20063;-79
2023/07/20 02:15:22;;;;;;;2.53;1.50;;;14.70;99.90;;;;;;4131180;28;20121;-78
2023/07/20 02:17:23;;;;;;;1.33;1.02;;;14.60;99.90;;;;;;4131211;28;20046;-78
2023/07/20 02:19:25;;;;;;;1.88;1.33;;;14.60;99.90;;;;;;4113948;28;20093;-78
2023/07/20 02:21:25;;;;;;;2.10;1.63;;;14.60;99.90;;;;;;4131039;28;20077;-78
2023/07/20 02:23:26;;;;;;;1.50;1.20;;;14.60;99.90;;;;;;4131515;28;20077;-78
2023/07/20 02:25:27;;;;;;;3.42;1.45;;;14.60;99.90;;;;;;4131099;28;20054;-78
2023/07/20 02:27:28;;;;;;;2.13;1.60;;;14.60;99.90;;;;;;4131323;28;20042;-79
2023/07/20 02:29:29;;;;;;;4.60;1.40;;;14.50;99.90;;;;;;4113580;28;20054;-78
2023/07/20 02:31:29;;;;;;;6.07;1.40;;;14.50;99.90;;;;;;4131319;28;20050;-78
2023/07/20 02:33:30;;;;;;;1.20;1.05;;;14.50;99.90;;;;;;4131322;28;20046;-78
2023/07/20 02:35:31;;;;;;;2.10;1.30;;;14.50;99.90;;;;;;4130710;28;20082;-79
2023/07/20 02:37:32;;;;;;;4.18;1.25;;;14.40;99.90;;;;;;4131110;28;20053;-78
2023/07/20 02:39:33;;;;;;;5.45;1.30;;;14.40;99.90;;;;;;4113943;28;20082;-78
2023/07/20 02:41:34;;;;;;;6.28;1.55;;;14.40;99.90;;;;;;4131813;28;20116;-78
2023/07/20 02:43:34;;;;;;;2.13;1.10;;;14.40;99.90;;;;;;4134309;28;20050;-79
2023/07/20 02:45:39;;;;;;;2.63;1.27;;;14.40;99.90;;;;;;4133982;28;20052;-78
2023/07/20 02:47:40;;;;;;;2.17;1.15;;;14.50;99.90;;;;;;4135055;28;20046;-78
2023/07/20 02:49:42;;;;;;;1.45;0.95;;;14.30;99.90;;;;;;4116550;28;20082;-78
2023/07/20 02:51:42;;;;;;;8.45;1.35;;;14.30;99.90;;;;;;4133933;28;20038;-78
2023/07/20 02:53:43;;;;;;;3.28;1.30;;;14.30;99.90;;;;;;4133675;28;20077;-78
2023/07/20 02:55:44;;;;;;;4.05;1.90;;;14.30;99.90;;;;;;4116249;28;20050;-78
2023/07/20 02:57:44;;;;;;;4.70;1.30;;;14.30;99.90;;;;;;4133344;28;20510;-79
2023/07/20 02:59:46;;;;;;;4.32;1.30;;;14.20;99.90;;;;;;4133618;28;20046;-79
2023/07/20 03:01:47;;;;;;;1.92;1.40;;;14.20;99.90;;;;;;4133581;28;20096;-79
2023/07/20 03:03:47;;;;;;;4.90;1.20;;;14.10;99.90;;;;;;4132599;28;20570;-79
2023/07/20 03:05:54;;;;;;;3.22;1.52;;;14.10;99.90;;;;;;4133794;28;20058;-78
2023/07/20 03:07:55;;;;;;;2.35;1.00;;;14.10;99.90;;;;;;4115944;28;20059;-79
2023/07/20 03:09:56;;;;;;;3.70;1.20;;;14.10;99.90;;;;;;4133485;28;20058;-79
2023/07/20 03:11:57;;;;;;;2.65;1.20;;;14.10;99.90;;;;;;4133581;28;20046;-79
2023/07/20 03:13:58;;;;;;;1.63;1.40;;;14.10;99.90;;;;;;4116371;28;20043;-79
2023/07/20 03:15:58;;;;;;;4.60;1.35;;;14.10;99.90;;;;;;4133554;28;20068;-79
2023/07/20 03:17:59;;;;;;;1.15;1.00;;;14.10;99.90;;;;;;4116393;28;20082;-79
2023/07/20 03:20:00;;;;;;;5.10;1.15;;;14.10;99.90;;;;;;4133486;28;20050;-79
2023/07/20 03:22:01;;;;;;;3.63;1.92;;;14.00;99.90;;;;;;4116410;28;20131;-79
2023/07/20 03:24:02;;;;;;;6.07;1.58;;;14.00;99.90;;;;;;4132971;28;20422;-79
2023/07/20 03:26:02;;;;;;;1.95;1.15;;;14.00;99.90;;;;;;4133309;28;20050;-79
2023/07/20 03:28:03;;;;;;;6.60;1.08;;;14.00;99.90;;;;;;4133069;28;20069;-78
2023/07/20 03:30:07;;;;;;;3.28;1.35;;;14.00;99.90;;;;;;4133084;28;20050;-79
2023/07/20 03:32:08;;;;;;;3.55;1.48;;;13.90;99.90;;;;;;4133396;28;20038;-79
2023/07/20 03:34:08;;;;;;;3.58;2.03;;;13.90;99.90;;;;;;4115732;28;20051;-79
2023/07/20 03:36:10;;;;;;;3.50;1.33;;;13.80;99.90;;;;;;4132955;28;20042;-78
2023/07/20 03:38:10;;;;;;;3.53;1.70;;;13.80;99.90;;;;;;4133204;28;20042;-78
2023/07/20 03:40:11;;;;;;;7.57;1.30;;;13.80;99.90;;;;;;4133683;28;20058;-78
2023/07/20 03:42:12;;;;;;;3.17;1.40;;;13.80;99.90;;;;;;4116145;28;20110;-78
2023/07/20 03:44:12;;;;;;;2.35;1.10;;;13.80;99.90;;;;;;4132762;28;20082;-78
2023/07/20 03:46:13;;;;;;;2.08;1.42;;;13.70;99.90;;;;;;4115403;28;20081;-78
2023/07/20 03:48:16;;;;;;;2.80;1.33;;;13.70;99.90;;;;;;4133105;28;20046;-78
2023/07/20 03:50:17;;;;;;;2.47;1.15;;;13.60;99.90;;;;;;4132768;28;20125;-78
2023/07/20 03:52:18;;;;;;;1.45;1.20;;;13.60;99.90;;;;;;4133062;28;20074;-78
2023/07/20 03:54:18;;;;;;;3.70;1.40;;;13.60;99.90;;;;;;4114161;28;20053;-78
2023/07/20 03:56:19;;;;;;;7.20;2.15;;;13.60;99.90;;;;;;4133144;28;20053;-78
2023/07/20 03:58:21;;;;;;;2.65;1.42;;;13.60;99.90;;;;;;4133410;28;20047;-78
2023/07/20 04:00:22;;;;;;;6.88;1.42;;;13.60;99.90;;;;;;4115024;28;20148;-78
2023/07/20 04:02:22;;;;;;;2.58;1.27;;;13.60;99.90;;;;;;4132891;28;20482;-78
2023/07/20 04:04:23;;;;;;;2.15;1.40;;;13.60;99.90;;;;;;4132772;28;20081;-78
2023/07/20 04:06:24;;;;;;;3.95;1.50;;;13.60;99.90;;;;;;4115502;28;20541;-78
2023/07/20 04:08:25;;;;;;;3.08;1.40;;;13.60;99.90;;;;;;4132318;28;20137;-78
2023/07/20 04:10:25;;;;;;;2.28;1.48;;;13.60;99.90;;;;;;4114817;28;20503;-78
2023/07/20 04:12:27;;;;;;;2.55;1.48;;;13.60;99.90;;;;;;4132671;28;20136;-78
2023/07/20 04:14:28;;;;;;;1.95;1.50;;;13.60;99.90;;;;;;4132496;28;20616;-78
2023/07/20 04:16:28;;;;;;;2.67;1.38;;;13.60;99.90;;;;;;4115201;28;20074;-78
2023/07/20 04:18:29;;;;;;;2.70;1.15;;;13.70;99.90;;;;;;4132272;28;20104;-78
2023/07/20 04:20:30;;;;;;;2.50;1.38;;;13.70;99.90;;;;;;4132242;28;20053;-78
2023/07/20 04:22:30;;;;;;;1.65;1.20;;;13.80;99.90;;;;;;4132346;28;20046;-78
2023/07/20 04:24:31;;;;;;;3.85;1.50;;;13.80;99.90;;;;;;4114745;28;20042;-78
2023/07/20 04:26:32;;;;;;;1.30;1.13;;;13.80;99.90;;;;;;4115488;28;20042;-78
2023/07/20 04:28:33;;;;;;;2.92;1.65;;;13.90;99.90;;;;;;4132732;28;20053;-78
2023/07/20 04:30:38;;;;;;;1.58;1.40;;;13.90;99.90;;;;;;4131824;28;20129;-78
2023/07/20 04:32:45;;;;;;;2.05;1.60;;;13.90;99.90;;;;;;4133141;28;20046;-78
2023/07/20 04:34:46;;;;;;;2.55;1.70;;;13.90;99.90;;;;;;4132499;28;20120;-79
2023/07/20 04:36:47;;;;;;;4.28;1.77;;;13.90;99.90;;;;;;4114641;28;20062;-78
2023/07/20 04:38:47;;;;;;;2.42;1.40;;;13.90;99.90;;;;;;4114977;28;20517;-79
2023/07/20 04:40:49;;;;;;;2.45;1.38;;;14.00;99.90;;;;;;4131657;28;20050;-78
2023/07/20 04:42:50;;;;;;;2.17;1.20;;;14.00;99.90;;;;;;4119323;28;20427;-78
2023/07/20 04:44:50;;;;;;;2.78;1.55;;;14.10;99.90;;;;;;4131771;28;20049;-78
2023/07/20 04:46:51;;;;;;;3.67;1.65;;;14.10;99.90;;;;;;4132115;28;20051;-79
2023/07/20 04:48:52;;;;;;;3.15;1.45;;;14.10;99.90;;;;;;4131568;28;20053;-79
2023/07/20 04:50:52;;;;;;;2.58;1.30;;;14.10;99.90;;;;;;4131875;28;20499;-78
2023/07/20 04:52:53;;;;;;;1.85;1.52;;;14.10;99.90;;;;;;4132109;28;20133;-78
2023/07/20 04:54:54;;;;;;;6.43;2.60;;;14.10;99.90;;;;;;4130376;28;20050;-78
2023/07/20 04:56:55;;;;;;;5.38;2.13;;;14.10;99.90;;;;;;4131792;28;20046;-78
2023/07/20 04:58:55;;;;;;;5.40;1.30;;;14.20;99.90;;;;;;4132014;28;20097;-78
2023/07/20 05:00:59;;;;;;;5.50;1.52;;;14.20;99.90;;;;;;4114612;28;20054;-78
2023/07/20 05:03:00;;;;;;;3.25;1.20;;;14.20;99.90;;;;;;4131630;28;20053;-78
2023/07/20 05:05:01;;;;;;;1.20;1.13;;;14.30;99.90;;;;;;4114238;28;20055;-78
2023/07/20 05:07:02;;;;;;;3.90;1.30;;;14.30;99.90;;;;;;4114115;28;20535;-79
2023/07/20 05:09:03;;;;;;;3.20;1.27;;;14.40;99.90;;;;;;4115377;28;20058;-78
2023/07/20 05:11:04;;;;;;;4.60;1.50;;;14.40;99.90;;;;;;4115600;28;20050;-78
2023/07/20 05:13:04;;;;;;;3.67;1.20;;;14.40;99.90;;;;;;4115490;28;20159;-78
2023/07/20 05:15:05;;;;;;;2.13;1.45;;;14.50;99.90;;;;;;4114282;28;20402;-78
2023/07/20 05:17:06;;;;;;;3.90;1.20;;;14.60;99.90;;;;;;4115450;28;20054;-78
2023/07/20 05:19:07;;;;;;;1.80;1.35;;;14.60;99.90;;;;;;4115867;28;20054;-79
2023/07/20 05:21:08;;;;;;;3.70;1.25;;;14.60;99.90;;;;;;4115620;28;20042;-79
2023/07/20 05:23:09;;;;;;;4.18;1.33;;;14.70;99.90;;;;;;4115580;28;20065;-78
2023/07/20 05:25:11;;;;;;;3.03;1.30;;;14.70;99.90;;;;;;4114884;28;20486;-78
2023/07/20 05:27:12;;;;;;;1.20;1.02;;;14.80;99.90;;;;;;4115515;28;20438;-78
2023/07/20 05:29:13;;;;;;;2.63;0.80;;;14.90;99.90;;;;;;4113842;28;20109;-78
2023/07/20 05:31:14;;;;;;;4.47;1.00;;;14.90;99.90;;;;;;4115421;28;20051;-78
2023/07/20 05:33:15;;;;;;;3.70;1.13;;;15.00;99.90;;;;;;4113673;28;20054;-78
2023/07/20 05:35:16;;;;;;;2.92;1.30;;;15.10;99.90;;;;;;4115310;28;20081;-78
2023/07/20 05:37:17;;;;;;;2.08;0.80;;;15.10;99.90;;;;;;4114320;28;20047;-78
2023/07/20 05:39:18;;;;;;;5.50;1.38;;;15.20;99.90;;;;;;4116074;28;20050;-78
2023/07/20 05:41:18;;;;;;;1.83;1.30;;;15.20;99.90;;;;;;4115198;28;20049;-78
2023/07/20 05:43:19;;;;;;;3.50;1.17;;;15.30;99.90;;;;;;4115157;28;20486;-78
2023/07/20 05:45:20;;;;;;;4.55;0.93;;;15.30;99.90;;;;;;4115455;28;20451;-78
2023/07/20 05:47:21;;;;;;;3.45;1.33;;;15.40;99.90;;;;;;4117622;28;20042;-78
2023/07/20 05:49:22;;;;;;;3.15;1.30;;;15.50;99.90;;;;;;4130659;28;20046;-79
2023/07/20 05:51:22;;;;;;;4.82;1.10;;;15.50;99.90;;;;;;4130510;28;20530;-78
2023/07/20 05:53:23;;;;;;;1.95;0.85;;;15.60;99.90;;;;;;4130292;28;20180;-78
2023/07/20 05:55:27;;;;;;;3.40;0.90;;;15.60;99.90;;;;;;4130183;28;20065;-78
2023/07/20 05:57:28;;;;;;;3.83;1.30;;;15.70;99.90;;;;;;4130676;28;20042;-78
2023/07/20 05:59:31;;;;;;;1.33;0.65;;;15.70;99.90;;;;;;4131436;28;20050;-78
2023/07/20 06:01:32;;;;;;;9.13;1.92;;;15.80;99.90;;;;;;4132878;28;20042;-78
2023/07/20 06:03:35;;;;;;;4.47;0.80;;;15.90;99.90;;;;;;4132764;28;20046;-78
2023/07/20 06:05:35;;;;;;;4.68;0.70;;;16.00;99.90;;;;;;4132732;28;20042;-79
2023/07/20 06:07:37;;;;;;;4.85;0.85;;;16.00;99.90;;;;;;4140724;28;20485;-78
2023/07/20 06:09:38;;;;;;;7.25;0.70;;;16.10;99.90;;;;;;4148439;28;20831;-78
2023/07/20 06:11:39;;;;;;;3.75;0.73;;;15.90;99.90;;;;;;4148276;28;20041;-79
2023/07/20 06:13:40;;;;;;;1.77;0.70;;;16.30;99.90;;;;;;4131262;28;20057;-77
2023/07/20 06:15:41;;;;;;;1.67;0.50;;;16.30;99.90;;;;;;4147480;28;20892;-77
2023/07/20 06:17:41;;;;;;;3.55;0.65;;;16.40;99.90;;;;;;4132310;28;20145;-78
2023/07/20 06:19:42;;;;;;;5.70;1.48;;;16.50;99.90;;;;;;4133519;28;20413;-83
2023/07/20 06:21:44;;;;;;;2.05;0.80;;;16.60;99.90;;;;;;4134104;28;20061;-79
2023/07/20 06:23:45;;;;;;;2.17;1.33;;;16.70;99.90;;;;;;4151513;28;20045;-79
2023/07/20 06:25:46;;;;;;;0.88;0.50;;;16.80;99.90;;;;;;4150830;28;20042;-82
2023/07/20 06:27:46;;;;;;;2.50;0.80;;;16.80;99.90;;;;;;4149255;28;20549;-80
2023/07/20 06:31:54;;;;;;;4.10;0.80;;;16.90;99.90;;;;;;3270274;28;21334;-81
2023/07/20 06:33:55;;;;;;;2.75;0.68;;;17.00;99.90;;;;;;4151061;28;20088;-80
2023/07/20 06:35:59;;;;;;;2.38;0.75;;;17.00;99.90;;;;;;4150584;28;20042;-81
2023/07/20 06:38:00;;;;;;;1.80;0.52;;;17.10;99.90;;;;;;4150606;28;20077;-80
2023/07/20 06:40:06;;;;;;;2.20;0.80;;;17.20;99.90;;;;;;4151180;28;20057;-80
2023/07/20 06:42:07;;;;;;;4.38;0.90;;;17.30;99.90;;;;;;4151327;28;20080;-80
2023/07/20 06:44:08;;;;;;;5.63;1.20;;;17.40;99.90;;;;;;4143185;28;20042;-80
2023/07/20 06:46:09;;;;;;;4.15;0.70;;;17.40;99.90;;;;;;4134461;28;20073;-80
2023/07/20 06:48:10;;;;;;;3.00;0.80;;;17.50;99.90;;;;;;4140089;28;20042;-80
2023/07/20 06:50:11;;;;;;;4.53;1.58;;;17.60;99.90;;;;;;4133599;28;20536;-80
2023/07/20 06:52:11;;;;;;;6.93;1.17;;;17.60;99.90;;;;;;4147711;28;20038;-80
2023/07/20 06:54:12;;;;;;;5.45;1.58;;;17.70;99.90;;;;;;4134496;28;20450;-80
2023/07/20 06:56:13;;;;;;;3.85;1.42;;;17.70;99.90;;;;;;4133098;28;20053;-81
2023/07/20 06:58:16;;;;;;;9.65;1.42;;;17.80;99.90;;;;;;4147092;28;20082;-81
2023/07/20 07:00:17;;;;;;;2.13;0.90;;;17.90;99.90;;;;;;4148385;28;20050;-79
2023/07/20 07:02:18;;;;;;;6.63;1.30;;;18.00;99.90;;;;;;4149417;28;20148;-78
2023/07/20 07:04:18;;;;;;;4.78;1.25;;;18.10;99.90;;;;;;4133634;28;20141;-80
2023/07/20 07:06:20;;;;;;;1.88;0.98;;;18.20;99.90;;;;;;4133647;28;20085;-79
2023/07/20 07:08:21;;;;;;;6.65;1.45;;;18.40;99.90;;;;;;4133557;28;20066;-81
2023/07/20 07:10:22;;;;;;;3.83;1.15;;;18.50;99.90;;;;;;4137107;28;20046;-80
2023/07/20 07:12:22;;;;;;;4.80;1.65;;;18.60;99.90;;;;;;4133455;28;20043;-81
2023/07/20 07:14:23;;;;;;;3.65;0.90;;;18.70;99.90;;;;;;4133466;28;20053;-81
2023/07/20 07:16:24;;;;;;;4.50;1.23;;;18.80;99.90;;;;;;4137064;28;20042;-81
2023/07/20 07:18:26;;;;;;;2.25;1.00;;;18.90;99.90;;;;;;4133624;28;20057;-81
2023/07/20 07:20:27;;;;;;;1.48;0.90;;;19.00;99.90;;;;;;4133333;28;20046;-81
2023/07/20 07:22:29;;;;;;;2.38;0.90;;;19.00;99.90;;;;;;4133532;28;20049;-82
2023/07/20 07:24:33;;;;;;;4.68;1.30;;;19.10;99.90;;;;;;4133100;28;20046;-81
2023/07/20 07:26:34;;;;;;;3.05;1.40;;;19.20;99.90;;;;;;4133210;28;20513;-86
2023/07/20 07:28:34;;;;;;;2.55;1.08;;;19.30;99.90;;;;;;4132013;28;20042;-80
2023/07/20 07:30:35;;;;;;;5.03;1.00;;;19.40;99.90;;;;;;4133221;28;20130;-80
2023/07/20 07:32:36;;;;;;;4.38;1.95;;;19.60;99.90;;;;;;4145307;28;20857;-80
2023/07/20 07:34:37;;;;;;;5.30;1.15;;;19.80;99.90;;;;;;4148914;28;20084;-81
2023/07/20 07:36:38;;;;;;;5.00;0.90;;;;;;;;;;4147784;28;20053;-81
2023/07/20 07:38:39;;;;;;;4.80;1.17;;;;;;;;;;4147975;28;20128;-81
2023/07/20 07:40:40;;;;;;;3.25;1.15;;;20.00;99.90;;;;;;4149243;28;20042;-81
2023/07/20 07:42:41;;;;;;;7.03;1.40;;;20.60;99.90;;;;;;4149091;28;20100;-78
2023/07/20 07:44:42;;;;;;;8.25;1.33;;;20.60;99.90;;;;;;4149052;28;20045;-80
2023/07/20 07:46:44;;;;;;;3.78;0.82;;;20.60;99.90;;;;;;4147690;28;20073;-80
2023/07/20 07:48:44;;;;;;;3.13;1.02;;;20.50;99.90;;;;;;4143327;28;20525;-80
2023/07/20 07:50:45;;;;;;;4.15;0.82;;;20.40;99.90;;;;;;4151895;28;20046;-80
2023/07/20 07:52:46;;;;;;;4.72;0.95;;;20.20;99.90;;;;;;4133416;28;20121;-81
2023/07/20 07:54:48;;;;;;;5.00;0.88;;;20.10;99.90;;;;;;4133101;28;20042;-77
2023/07/20 07:56:49;;;;;;;7.00;1.20;;;19.90;99.90;;;;;;4133525;28;20402;-77
2023/07/20 07:58:51;;;;;;;4.53;0.70;;;19.90;99.90;;;;;;4147698;28;20053;-79
2023/07/20 08:00:53;;;;;;;2.72;0.57;;;20.20;99.90;;;;;;4149036;28;20053;-80
2023/07/20 08:02:54;;;;;;;4.55;0.80;;;;;;;;;;4149281;28;20050;-79
2023/07/20 08:04:55;;;;;;;4.57;0.60;;;;;;;;;;4147676;28;20461;-79
2023/07/20 08:06:57;;;;;;;3.03;0.70;;;;;;;;;;4148353;28;20052;-78
2023/07/20 08:08:58;;;;;;;2.95;0.68;;;;;;;;;;4154179;28;20057;-78
2023/07/20 08:11:00;;;;;;;3.47;0.98;;;;;;;;;;4144403;28;20196;-78
2023/07/20 08:13:01;;;;;;;2.50;0.80;;;;;;;;;;4147793;28;20108;-79
2023/07/20 08:15:05;;;;;;;2.08;0.65;;;;;;;;;;4147237;28;20121;-80
2023/07/20 08:17:06;;;;;;;2.67;0.90;;;;;;;;;;4147620;28;20042;-78
2023/07/20 08:19:08;;;;;;;1.27;0.65;;;;;;;;;;4147188;28;20409;-79
2023/07/20 08:21:09;;;;;;;1.58;0.52;;;;;;;;;;4148577;28;20077;-78
2023/07/20 08:23:10;;;;;;;2.17;0.68;;;;;;;;;;4148684;28;20038;-79
2023/07/20 08:25:11;;;;;;;2.78;0.60;;;;;;;;;;4147362;28;20053;-80
2023/07/20 08:27:12;;;;;;;3.42;0.60;;;;;;;;;;4144577;28;20039;-80
2023/07/20 08:29:14;;;;;;;1.23;0.40;;;;;;;;;;4146948;28;20104;-80
2023/07/20 08:31:14;;;;;;;1.27;0.50;;;20.40;99.90;;;;;;4148269;28;20042;-79
2023/07/20 08:33:18;;;;;;;3.50;0.98;;;;;;;;;;4136318;28;20054;-79
2023/07/20 08:35:20;;;;;;;2.90;0.40;;;;;;;;;;4132366;28;20057;-78
2023/07/20 08:37:21;;;;;;;1.23;0.50;;;;;;;;;;4131943;28;20517;-79
2023/07/20 08:39:22;;;;;;;9.40;1.35;;;;;;;;;;4131888;28;20512;-79
2023/07/20 08:41:23;;;;;;;1.70;0.47;;;;;;;;;;4131388;28;20050;-79
2023/07/20 08:43:25;;;;;;;3.08;0.50;;;;;;;;;;4132189;28;20049;-79
2023/07/20 08:45:31;;;;;;;7.20;0.75;;;;;;;;;;4132039;28;20089;-79
2023/07/20 08:47:32;;;;;;;0.60;0.35;;;;;;;;;;4140691;28;20865;-79
2023/07/20 08:49:34;;;;;;;4.43;0.57;;;;;;;;;;4147847;28;20052;-79
2023/07/20 08:51:36;;;;;;;1.73;0.45;;;;;;;;;;4147851;28;20129;-79
2023/07/20 08:53:37;;;;;;;1.80;0.30;;;;;;;;;;4146840;28;20096;-79
2023/07/20 08:55:39;;;;;;;1.55;0.30;;;;;;;;;;4147878;28;20041;-79
2023/07/20 08:57:41;;;;;;;1.92;0.80;;;;;;;;;;4148193;28;20133;-79
2023/07/20 08:59:43;;;;;;;2.65;0.63;;;;;;;;;;4147917;28;20041;-80
2023/07/20 09:01:45;;;;;;;2.35;0.40;;;;;;;;;;4147914;28;20046;-80
2023/07/20 09:03:47;;;;;;;4.60;0.47;;;;;;;;;;4146536;28;20531;-79
2023/07/20 09:05:48;;;;;;;2.30;0.52;;;;;;;;;;4147887;28;20058;-79
2023/07/20 09:07:49;;;;;;;2.67;0.35;;;;;;;;;;4146838;28;20501;-81
2023/07/20 09:09:50;;;;;;;1.33;0.57;;;;;;;;;;4131955;28;20121;-80
2023/07/20 09:11:51;;;;;;;1.05;0.40;;;;;;;;;;4131426;28;20097;-81
2023/07/20 09:14:08;;;;;;;0.98;0.30;;;;;;;;;;4136522;28;20130;-81
2023/07/20 09:16:09;;;;;;;2.17;0.50;;;;;;;;;;4147464;28;20049;-82
2023/07/20 09:18:10;;;;;;;0.77;0.47;;;;;;;;;;4146712;28;20058;-80
2023/07/20 09:20:11;;;;;;;3.97;0.50;;;;;;;;;;4147474;28;20536;-80
2023/07/20 09:22:13;;;;;;;1.00;0.45;;;;;;;;;;4148069;28;20082;-79
2023/07/20 09:24:14;;;;;;;1.35;0.40;;;;;;;;;;4146694;28;20112;-80
2023/07/20 09:26:16;;;;;;;2.08;0.55;;;;;;;;;;4129971;28;20114;-81
2023/07/20 09:28:18;;;;;;;4.30;0.50;;;;;;;;;;4145009;28;20545;-81
2023/07/20 09:30:19;;;;;;;1.95;0.60;;;;;;;;;;4131206;28;20100;-81
2023/07/20 09:32:21;;;;;;;3.40;0.80;;;;;;;;;;4129953;28;20057;-81
2023/07/20 09:34:22;;;;;;;3.58;0.70;;;;;;;;;;4131614;28;20442;-81
2023/07/20 09:36:23;;;;;;;1.92;0.60;;;;;;;;;;4131004;28;20054;-81
2023/07/20 09:38:26;;;;;;;0.57;0.30;;;;;;;;;;4131653;28;20042;-82
2023/07/20 09:40:28;;;;;;;2.17;0.55;;;;;;;;;;4129910;28;20054;-81
2023/07/20 09:42:29;;;;;;;0.57;0.30;;;;;;;;;;4131437;28;20490;-81
2023/07/20 09:44:30;;;;;;;1.35;0.40;;;;;;;;;;4131695;28;20042;-79
2023/07/20 09:46:45;;;;;;;1.65;0.40;;;;;;;;;;4132742;28;20129;-80
2023/07/20 09:48:55;;;;;;;0.90;0.38;;;;;;;;;;4130111;28;20125;-80
2023/07/20 09:50:56;;;;;;;3.75;0.43;;;;;;;;;;4128355;28;20618;-80
2023/07/20 09:52:59;;;;;;;2.72;0.63;;;;;;;;;;4133818;28;20114;-80
2023/07/20 09:55:01;;;;;;;3.83;0.50;;;;;;;;;;4133617;28;20051;-81
2023/07/20 09:57:02;;;;;;;1.75;0.52;;;;;;;;;;4134088;28;20498;-80
2023/07/20 09:59:04;;;;;;;1.27;0.40;;;21.60;99.90;;;;;;4134149;28;20049;-81
2023/07/20 10:01:07;;;;;;;4.45;1.05;;;24.10;92.60;;;;;;4134710;28;20164;-81
2023/07/20 10:03:18;;;;;;;2.67;0.40;;;23.70;92.90;;;;;;4136484;28;20050;-83
2023/07/20 10:05:20;;;;;;;4.97;0.65;;;23.70;92.10;;;;;;4134882;28;20100;-81
2023/07/20 10:07:26;;;;;;;3.47;0.77;;;23.90;92.50;;;;;;4134800;28;20055;-81
2023/07/20 10:09:29;;;;;;;1.35;0.47;;;24.20;92.70;;;;;;4133254;28;20042;-81
2023/07/20 10:11:37;;;;;;;2.00;0.80;;;24.80;92.70;;;;;;4134241;28;20053;-82
2023/07/20 10:13:39;;;;;;;1.42;0.40;;;25.30;92.50;;;;;;4134655;28;20050;-79
2023/07/20 10:15:58;;;;;;;3.33;0.63;;;25.30;91.50;;;;;;4132804;28;20110;-81
2023/07/20 10:18:04;;;;;;;;;;;25.00;90.60;;;;;;4134924;28;20042;-81
2023/07/20 10:20:07;;;;;;;3.10;0.63;;;24.80;91.30;;;;;;4134268;28;19969;-82
2023/07/20 10:22:12;;;;;;;1.60;0.30;;;24.80;91.80;;;;;;4149568;28;20061;-82
2023/07/20 10:24:14;;;;;;;4.25;0.38;;;25.00;91.00;;;;;;4134389;28;20046;-81
2023/07/20 10:26:15;;;;;;;0.73;0.47;;;25.30;91.50;;;;;;4137164;28;20046;-82
2023/07/20 10:28:16;;;;;;;1.17;0.43;;;;;;;;;;4132726;28;20436;-82
2023/07/20 10:30:19;;;;;;;1.30;0.40;;;25.70;91.30;;;;;;4132876;28;20127;-81
2023/07/20 10:32:20;;;;;;;0.70;0.38;;;26.20;90.80;;;;;;4148967;28;20076;-81
2023/07/20 10:34:22;;;;;;;4.65;0.50;;;26.00;90.00;;;;;;4132967;28;20105;-81
2023/07/20 10:36:29;;;;;;;1.63;0.60;;;25.80;89.00;;;;;;4133711;28;20085;-81
2023/07/20 10:38:40;;;;;;;1.55;0.60;;;25.40;88.30;;;;;;4134254;28;20050;-81
2023/07/20 10:40:41;;;;;;;2.10;0.70;;;25.40;89.10;;;;;;4134063;28;20540;-81
2023/07/20 10:42:41;;;;;;;1.73;0.65;;;25.60;89.40;;;;;;4133980;28;20046;-81
2023/07/20 10:44:46;;;;;;;2.25;0.60;;;25.90;89.00;;;;;;4133998;28;20082;-81
2023/07/20 10:46:47;;;;;;;1.88;0.57;;;26.30;87.80;;;;;;4132442;28;20133;-81
2023/07/20 10:49:04;;;;;;;1.23;0.50;;;26.60;87.20;;;;;;4132083;28;20061;-81
2023/07/20 10:51:20;;;;;;;3.55;0.65;;;26.70;83.50;;;;;;4133563;28;20086;-81
2023/07/20 10:53:21;;;;;;;1.45;0.40;;;27.00;85.40;;;;;;4132903;28;20104;-81